Time;durP1;ratioP1;P1;durP2;ratioP2;P2;SDS_P1;SDS_P2;PMS_P1;PMS_P2;Temp;Humidity;BMP_temperature;BMP_pressure;BME280_temperature;BME280_humidity;BME280_pressure;Samples;Min_cycle;Max_cycle;Signal;HPM_P1;HPM_P2
2021/07/08 00:00:01;;;;;;;5.13;2.53;;;;;;;19.75;71.38;100111.22;2215663;40;20029;-86
2021/07/08 00:01:34;;;;;;;4.72;1.98;;;;;;;19.74;71.26;100106.81;2215766;40;20038;-86
2021/07/08 00:03:06;;;;;;;4.22;1.92;;;;;;;19.72;71.63;100106.22;2211834;40;20034;-87
2021/07/08 00:04:39;;;;;;;4.45;1.90;;;;;;;19.64;71.68;100119.97;2215720;40;20058;-87
2021/07/08 00:06:11;;;;;;;5.55;2.13;;;;;;;19.54;72.11;100111.38;2215711;40;20126;-87
2021/07/08 00:07:44;;;;;;;4.55;1.45;;;;;;;19.57;72.26;100100.09;2215621;40;20037;-87
2021/07/08 00:09:16;;;;;;;3.78;1.70;;;;;;;19.61;71.97;100104.09;2215746;40;20042;-87
2021/07/08 00:10:52;;;;;;;6.68;2.10;;;;;;;19.63;71.64;100097.41;2215507;40;20030;-87
2021/07/08 00:12:23;;;;;;;6.18;1.77;;;;;;;19.62;71.96;100111.19;2215724;40;20098;-87
2021/07/08 00:13:55;;;;;;;5.20;2.05;;;;;;;19.61;71.83;100098.66;2215590;40;20091;-88
2021/07/08 00:15:28;;;;;;;3.60;1.52;;;;;;;19.62;71.94;100103.88;2215858;40;20034;-87
2021/07/08 00:17:00;;;;;;;5.22;1.88;;;;;;;19.64;72.16;100112.66;2215576;40;20045;-85
2021/07/08 00:18:33;;;;;;;3.55;1.70;;;;;;;19.66;71.74;100101.59;2215687;40;20151;-87
2021/07/08 00:20:07;;;;;;;6.90;2.08;;;;;;;19.61;71.80;100109.50;2215216;40;20057;-87
2021/07/08 00:21:39;;;;;;;4.00;1.65;;;;;;;19.57;71.93;100105.53;2215676;40;20062;-86
2021/07/08 00:23:13;;;;;;;4.90;1.88;;;;;;;19.52;71.97;100099.88;2215698;40;20100;-86
2021/07/08 00:24:44;;;;;;;4.78;1.65;;;;;;;19.46;72.08;100104.22;2215676;40;20049;-87
2021/07/08 00:26:16;;;;;;;3.80;1.50;;;;;;;19.42;72.45;100101.09;2215612;40;20026;-88
2021/07/08 00:27:46;;;;;;;4.70;1.40;;;;;;;19.42;72.18;100103.81;2215649;40;20038;-87
2021/07/08 00:29:18;;;;;;;3.88;1.50;;;;;;;19.43;72.34;100102.78;2215574;40;20030;-88
2021/07/08 00:30:51;;;;;;;4.60;1.85;;;;;;;19.47;72.31;100100.50;2215403;40;20038;-87
2021/07/08 00:32:23;;;;;;;2.75;1.17;;;;;;;19.53;71.95;100104.28;2215566;40;20054;-88
2021/07/08 00:33:54;;;;;;;3.10;1.50;;;;;;;19.53;71.70;100098.84;2215434;40;20041;-87
2021/07/08 00:35:25;;;;;;;4.60;1.30;;;;;;;19.55;71.69;100104.91;2221663;40;20037;-86
2021/07/08 00:36:57;;;;;;;3.63;1.23;;;;;;;19.59;71.41;100104.31;2221644;40;20033;-88
2021/07/08 00:38:30;;;;;;;3.72;1.38;;;;;;;19.61;71.28;100090.53;2221709;40;20104;-86
2021/07/08 00:40:02;;;;;;;4.28;1.40;;;;;;;19.57;71.32;100109.09;2221618;40;20029;-86
2021/07/08 00:41:34;;;;;;;2.92;0.95;;;;;;;19.56;71.10;100099.28;2222175;40;20040;-87
2021/07/08 00:43:05;;;;;;;4.15;1.10;;;;;;;19.57;70.98;100090.09;2221746;40;20041;-86
2021/07/08 00:44:37;;;;;;;3.00;0.88;;;;;;;19.60;71.25;100094.28;2221793;40;20045;-86
2021/07/08 00:46:09;;;;;;;8.93;1.50;;;;;;;19.54;70.97;100098.63;2221211;40;20096;-88
2021/07/08 00:47:41;;;;;;;3.10;1.05;;;;;;;19.48;70.85;100094.03;2221744;40;20026;-86
2021/07/08 00:49:14;;;;;;;4.43;1.63;;;;;;;19.42;71.16;100084.84;2221653;40;20049;-88
2021/07/08 00:50:47;;;;;;;6.88;1.25;;;;;;;19.37;71.22;100084.59;2221519;40;20090;-87
2021/07/08 00:52:19;;;;;;;3.05;1.27;;;;;;;19.37;71.57;100098.13;2221567;40;20033;-86
2021/07/08 00:53:52;;;;;;;3.53;1.40;;;;;;;19.36;71.74;100096.50;2221547;40;20038;-87
2021/07/08 00:55:23;;;;;;;2.33;0.90;;;;;;;19.37;71.75;100106.25;2221487;40;20033;-86
2021/07/08 00:56:55;;;;;;;3.63;1.35;;;;;;;19.40;71.77;100107.75;2221426;40;20037;-85
2021/07/08 00:58:26;;;;;;;4.70;1.23;;;;;;;19.38;71.56;100101.69;2221589;40;20034;-86
2021/07/08 00:59:58;;;;;;;2.63;0.90;;;;;;;19.39;71.71;100101.50;2221463;40;20089;-86
2021/07/08 01:01:31;;;;;;;2.88;1.23;;;;;;;19.41;71.46;100101.31;2221628;40;20033;-87
2021/07/08 01:03:08;;;;;;;4.47;1.10;;;;;;;19.49;71.17;100101.94;2221564;40;20042;-87
2021/07/08 01:04:42;;;;;;;2.92;1.25;;;;;;;19.56;71.10;100101.97;2221685;40;20030;-87
2021/07/08 01:06:18;;;;;;;2.33;0.90;;;;;;;19.58;70.83;100099.91;2221582;40;20034;-87
2021/07/08 01:07:49;;;;;;;2.00;0.73;;;;;;;19.62;70.86;100097.63;2221698;40;20066;-88
2021/07/08 01:09:23;;;;;;;2.50;1.20;;;;;;;19.62;70.77;100084.06;2215293;40;20030;-86
2021/07/08 01:10:56;;;;;;;5.22;1.27;;;;;;;19.62;71.10;100082.19;2215266;40;20093;-87
2021/07/08 01:12:27;;;;;;;2.47;0.98;;;;;;;19.58;71.33;100075.50;2215371;40;20030;-87
2021/07/08 01:13:59;;;;;;;3.22;1.10;;;;;;;19.55;71.81;100064.25;2215420;40;20077;-86
2021/07/08 01:15:30;;;;;;;3.85;1.35;;;;;;;19.57;71.63;100063.00;2215513;40;20038;-85
2021/07/08 01:17:01;;;;;;;5.38;1.83;;;;;;;19.51;71.91;100055.66;2215367;40;20026;-86
2021/07/08 01:18:33;;;;;;;7.30;1.35;;;;;;;19.46;72.39;100047.31;2215292;40;20045;-88
2021/07/08 01:20:06;;;;;;;5.40;1.40;;;;;;;19.38;72.41;100045.59;2215888;40;20042;-87
2021/07/08 01:21:39;;;;;;;3.13;1.20;;;;;;;19.30;72.19;100037.66;2216275;40;20033;-87
2021/07/08 01:23:09;;;;;;;3.83;1.30;;;;;;;19.22;72.26;100027.84;2216265;40;20034;-88
2021/07/08 01:24:42;;;;;;;2.65;1.10;;;;;;;19.19;72.61;100030.94;2216349;40;20097;-85
2021/07/08 01:26:13;;;;;;;4.60;1.20;;;;;;;19.16;72.40;100024.06;2216183;40;20041;-85
2021/07/08 01:27:45;;;;;;;3.78;1.30;;;;;;;19.13;72.47;100026.31;2216412;40;20033;-87
2021/07/08 01:29:16;;;;;;;4.65;1.67;;;;;;;19.09;72.69;100025.88;2216234;40;20037;-85
2021/07/08 01:30:48;;;;;;;4.07;1.08;;;;;;;19.12;72.73;100036.34;2216206;40;20055;-86
2021/07/08 01:32:19;;;;;;;2.45;1.05;;;;;;;19.16;72.35;100048.44;2216262;40;20098;-89
2021/07/08 01:33:52;;;;;;;3.70;1.10;;;;;;;19.21;72.27;100036.16;2216221;40;20038;-86
2021/07/08 01:35:24;;;;;;;4.35;1.40;;;;;;;19.27;72.01;100044.31;2216240;40;20038;-86
2021/07/08 01:36:57;;;;;;;2.80;1.10;;;;;;;19.27;72.18;100038.91;2216248;40;20053;-86
2021/07/08 01:38:28;;;;;;;4.25;1.40;;;;;;;19.27;72.36;100030.78;2216005;40;20069;-87
2021/07/08 01:40:01;;;;;;;4.28;1.50;;;;;;;19.22;72.81;100035.13;2216195;40;20022;-86
2021/07/08 01:41:33;;;;;;;4.65;1.88;;;;;;;19.14;73.10;100031.56;2216511;40;20034;-87
2021/07/08 01:43:04;;;;;;;5.10;1.63;;;;;;;19.13;73.36;100038.00;2216386;40;20561;-86
2021/07/08 01:44:36;;;;;;;5.28;1.40;;;;;;;19.13;73.48;100040.72;2216343;40;20045;-86
2021/07/08 01:46:10;;;;;;;4.75;1.67;;;;;;;19.16;73.24;100040.31;2215989;40;20121;-86
2021/07/08 01:47:42;;;;;;;4.70;1.38;;;;;;;19.21;73.05;100042.44;2216033;40;20042;-87
2021/07/08 01:49:14;;;;;;;7.90;1.55;;;;;;;19.17;72.91;100041.16;2216303;40;20038;-86
2021/07/08 01:50:45;;;;;;;4.20;1.48;;;;;;;19.13;72.90;100032.59;2216189;40;20037;-87
2021/07/08 01:52:18;;;;;;;3.40;1.42;;;;;;;19.14;73.05;100046.97;2216277;40;20037;-86
2021/07/08 01:53:49;;;;;;;3.15;1.17;;;;;;;19.14;73.02;100042.41;2216138;40;20102;-85
2021/07/08 01:55:21;;;;;;;4.18;1.60;;;;;;;19.20;72.65;100042.63;2216176;40;20034;-87
2021/07/08 01:56:52;;;;;;;7.10;1.73;;;;;;;19.25;72.65;100034.72;2216459;40;20030;-89
2021/07/08 01:58:24;;;;;;;4.65;1.48;;;;;;;19.25;72.54;100034.72;2216593;40;20033;-87
2021/07/08 03:54:02;;;;;;;6.75;2.22;;;;;;;18.44;76.68;100066.69;2226819;40;20092;-87
2021/07/08 04:23:52;;;;;;;6.63;2.20;;;;;;;18.52;76.40;100047.59;2218585;40;20054;-82
2021/07/08 04:42:36;;;;;;;5.60;2.20;;;;;;;18.59;76.71;100019.75;2172740;40;20041;-83
2021/07/08 04:44:08;;;;;;;5.88;2.20;;;;;;;18.65;76.73;100018.97;2173396;41;20032;-81
2021/07/08 04:45:39;;;;;;;5.13;2.10;;;;;;;18.67;76.45;100011.47;2199047;40;20048;-85
2021/07/08 04:47:11;;;;;;;4.80;2.30;;;;;;;18.68;76.30;100007.75;2220039;40;20034;-85
2021/07/08 04:48:44;;;;;;;6.25;2.00;;;;;;;18.68;76.80;100013.97;2220248;40;20029;-86
2021/07/08 04:50:17;;;;;;;5.57;1.77;;;;;;;18.77;76.32;100024.66;2220323;40;20489;-84
2021/07/08 04:51:50;;;;;;;7.95;1.95;;;;;;;18.81;76.25;100018.63;2223762;40;20025;-81
2021/07/08 04:53:22;;;;;;;5.35;2.53;;;;;;;18.85;76.12;100019.91;2226589;40;20044;-85
2021/07/08 04:54:54;;;;;;;3.63;1.70;;;;;;;18.88;76.00;100039.53;2227501;40;20044;-84
2021/07/08 04:56:25;;;;;;;5.70;1.92;;;;;;;18.88;75.54;100034.09;2228341;40;20044;-84
2021/07/08 04:57:57;;;;;;;4.70;1.92;;;;;;;18.90;75.83;100045.56;2227148;40;20041;-85
2021/07/08 04:59:28;;;;;;;4.65;2.33;;;;;;;18.90;75.53;100040.13;2227752;40;20044;-84
2021/07/08 05:01:00;;;;;;;4.25;2.03;;;;;;;18.92;75.62;100040.78;2224939;40;20042;-82
2021/07/08 05:02:32;;;;;;;5.82;2.78;;;;;;;18.94;75.15;100034.16;2221123;40;20109;-83
2021/07/08 05:04:05;;;;;;;4.20;1.92;;;;;;;18.93;75.08;100037.06;2221189;40;20486;-82
2021/07/08 05:05:37;;;;;;;3.97;1.92;;;;;;;18.96;74.92;100047.50;2223321;40;20057;-88
2021/07/08 05:07:11;;;;;;;4.18;2.08;;;;;;;19.03;74.97;100040.25;2229051;39;20025;-88
2021/07/08 05:08:43;;;;;;;3.88;1.98;;;;;;;19.05;74.79;100038.19;2222899;40;20040;-89
2021/07/08 05:10:16;;;;;;;4.10;1.73;;;;;;;19.11;74.47;100047.38;2222200;40;20049;-84
2021/07/08 05:11:47;;;;;;;7.20;2.60;;;;;;;19.08;74.70;100048.59;2221152;40;20048;-83
2021/07/08 05:13:19;;;;;;;5.50;2.38;;;;;;;19.03;74.96;100053.78;2220914;40;20030;-84
2021/07/08 05:14:51;;;;;;;6.95;2.88;;;;;;;19.00;75.23;100048.78;2221349;40;20372;-85
2021/07/08 05:16:23;;;;;;;6.75;2.60;;;;;;;18.97;75.24;100055.44;2220860;40;20057;-84
2021/07/08 05:17:54;;;;;;;5.10;2.53;;;;;;;18.93;75.48;100046.03;2221290;40;20037;-86
2021/07/08 05:19:28;;;;;;;5.70;2.28;;;;;;;18.90;75.79;100042.84;2221456;40;20033;-84
2021/07/08 05:21:00;;;;;;;9.50;2.70;;;;;;;18.86;75.83;100043.25;2221107;40;20034;-86
2021/07/08 05:22:31;;;;;;;7.03;2.78;;;;;;;18.80;75.85;100043.22;2221456;40;20029;-86
2021/07/08 05:24:04;;;;;;;6.40;3.22;;;;;;;18.80;76.04;100051.34;2220111;40;20050;-87
2021/07/08 05:25:35;;;;;;;6.13;2.70;;;;;;;18.79;76.06;100063.19;2214888;40;20098;-85
2021/07/08 05:27:11;;;;;;;8.65;3.10;;;;;;;18.81;76.18;100061.97;2214956;40;20047;-87
2021/07/08 05:28:43;;;;;;;7.15;3.85;;;;;;;18.80;75.99;100060.28;2216615;40;20023;-89
2021/07/08 05:30:14;;;;;;;6.93;2.17;;;;;;;18.81;76.02;100061.97;2216512;40;20034;-87
2021/07/08 05:31:46;;;;;;;6.88;2.88;;;;;;;18.82;76.16;100055.50;2216594;40;20018;-89
2021/07/08 05:33:18;;;;;;;5.95;2.67;;;;;;;18.89;76.04;100052.03;2216646;40;20037;-89
2021/07/08 05:34:50;;;;;;;5.93;3.10;;;;;;;18.95;75.62;100038.53;2216602;40;20026;-87
2021/07/08 05:36:22;;;;;;;8.38;3.10;;;;;;;19.02;75.69;100046.69;2216565;40;20026;-87
2021/07/08 05:37:54;;;;;;;4.88;2.55;;;;;;;19.08;75.65;100042.34;2216543;40;20014;-87
2021/07/08 05:39:25;;;;;;;5.72;2.75;;;;;;;19.12;75.24;100038.22;2216527;40;20121;-89
2021/07/08 05:40:57;;;;;;;5.45;2.80;;;;;;;19.12;75.33;100049.88;2216683;40;20040;-89
2021/07/08 05:42:29;;;;;;;8.70;2.60;;;;;;;19.15;75.33;100044.06;2216948;40;20033;-89
2021/07/08 05:44:01;;;;;;;8.07;2.60;;;;;;;19.19;75.35;100049.91;2210509;40;20030;-88
2021/07/08 05:45:33;;;;;;;7.25;3.10;;;;;;;19.24;75.31;100054.72;2209958;40;20057;-90
2021/07/08 05:47:05;;;;;;;5.93;2.97;;;;;;;19.27;75.13;100047.03;2210267;40;20026;-88
2021/07/08 05:48:36;;;;;;;8.63;3.08;;;;;;;19.30;74.94;100048.50;2210419;40;20030;-87
2021/07/08 05:50:11;;;;;;;5.88;2.63;;;;;;;19.32;74.59;100041.00;2210576;40;20039;-88
2021/07/08 05:51:42;;;;;;;4.20;2.58;;;;;;;19.33;74.64;100050.81;2210457;40;20513;-88
2021/07/08 05:53:14;;;;;;;6.75;2.95;;;;;;;19.36;74.62;100053.13;2210650;40;20045;-88
2021/07/08 05:54:45;;;;;;;5.80;2.47;;;;;;;19.37;74.50;100060.19;2210289;40;20094;-88
2021/07/08 05:56:17;;;;;;;9.00;2.60;;;;;;;19.39;74.51;100074.38;2210321;40;20035;-88
2021/07/08 05:57:49;;;;;;;6.07;2.53;;;;;;;19.41;74.06;100085.88;2210411;40;20109;-88
2021/07/08 05:59:20;;;;;;;9.50;3.47;;;;;;;19.37;74.09;100103.56;2210488;40;20639;-89
2021/07/08 06:00:52;;;;;;;9.57;2.88;;;;;;;19.31;74.61;100101.66;2210509;40;20031;-89
2021/07/08 06:02:24;;;;;;;5.35;2.55;;;;;;;19.27;74.85;100113.97;2210491;40;20027;-88
2021/07/08 06:03:56;;;;;;;11.80;3.72;;;;;;;19.19;75.22;100120.38;2210280;40;20030;-88
2021/07/08 06:05:29;;;;;;;14.07;3.30;;;;;;;19.16;75.62;100124.31;2209021;40;20041;-85
2021/07/08 06:07:01;;;;;;;7.63;2.92;;;;;;;19.13;75.54;100129.28;2208238;40;20037;-84
2021/07/08 06:08:31;;;;;;;6.78;2.55;;;;;;;19.16;75.54;100129.75;2208879;40;20046;-85
2021/07/08 06:10:05;;;;;;;6.18;2.60;;;;;;;19.11;75.74;100148.44;2208260;40;20026;-84
2021/07/08 06:11:36;;;;;;;8.57;3.05;;;;;;;19.09;75.70;100165.94;2207910;40;20038;-84
2021/07/08 06:13:08;;;;;;;6.28;3.00;;;;;;;19.11;75.63;100162.00;2207325;40;20038;-84
2021/07/08 06:14:39;;;;;;;8.23;3.15;;;;;;;19.14;75.74;100169.72;2208315;40;20035;-85
2021/07/08 06:16:12;;;;;;;12.52;3.45;;;;;;;19.14;75.75;100169.72;2207995;40;20030;-84
2021/07/08 06:17:43;;;;;;;7.05;3.08;;;;;;;19.11;75.62;100161.16;2208519;40;20026;-86
2021/07/08 06:19:14;;;;;;;5.97;2.90;;;;;;;19.16;75.47;100156.84;2208680;40;20050;-83
2021/07/08 06:20:49;;;;;;;6.45;2.90;;;;;;;19.21;75.32;100153.53;2208523;40;20041;-85
2021/07/08 06:22:20;;;;;;;5.90;2.78;;;;;;;19.31;75.10;100158.56;2218057;40;20030;-84
2021/07/08 06:23:52;;;;;;;8.07;3.28;;;;;;;19.32;75.05;100162.97;2219609;40;20044;-85
2021/07/08 06:25:28;;;;;;;5.82;2.33;;;;;;;19.34;74.97;100158.19;2224136;40;20030;-85
2021/07/08 06:26:59;;;;;;;7.60;3.17;;;;;;;19.40;75.02;100162.78;2219838;40;20022;-85
2021/07/08 06:28:32;;;;;;;5.75;2.80;;;;;;;19.44;74.68;100163.22;2219505;40;20033;-84
2021/07/08 06:30:04;;;;;;;8.13;2.60;;;;;;;19.46;74.59;100178.25;2220410;40;20081;-86
2021/07/08 06:31:36;;;;;;;10.70;3.17;;;;;;;19.48;74.78;100170.75;2220514;40;20037;-86
2021/07/08 06:33:07;;;;;;;7.47;3.83;;;;;;;19.50;74.35;100170.56;2220920;40;20303;-84
2021/07/08 06:34:38;;;;;;;10.07;3.10;;;;;;;19.52;74.33;100163.06;2219887;40;20297;-84
2021/07/08 06:36:12;;;;;;;7.05;2.80;;;;;;;19.57;74.22;100163.31;2219229;40;20029;-86
2021/07/08 06:37:44;;;;;;;8.10;2.50;;;;;;;19.62;74.29;100163.53;2221069;40;20049;-84
2021/07/08 06:39:15;;;;;;;8.30;2.88;;;;;;;19.59;74.11;100160.38;2222320;40;20037;-88
2021/07/08 06:40:49;;;;;;;7.97;2.78;;;;;;;19.56;74.18;100167.06;2209352;40;20022;-88
2021/07/08 06:42:20;;;;;;;6.70;3.00;;;;;;;19.59;74.09;100160.38;2215577;40;20022;-88
2021/07/08 06:43:51;;;;;;;5.68;2.17;;;;;;;19.63;74.00;100164.38;2216136;40;20045;-89
2021/07/08 06:45:23;;;;;;;7.25;3.30;;;;;;;19.71;73.75;100168.78;2216194;40;20030;-88
2021/07/08 06:46:54;;;;;;;5.82;3.10;;;;;;;19.66;74.15;100166.66;2216253;40;20033;-89
2021/07/08 06:48:26;;;;;;;9.85;3.03;;;;;;;19.66;73.77;100160.41;2216204;40;20655;-89
2021/07/08 06:49:58;;;;;;;13.93;3.65;;;;;;;19.66;73.89;100155.81;2216219;40;20033;-88
2021/07/08 06:51:31;;;;;;;7.03;2.90;;;;;;;19.65;73.65;100154.16;2216183;40;20026;-86
2021/07/08 06:53:04;;;;;;;7.88;2.50;;;;;;;19.65;73.91;100159.56;2216034;40;20030;-84
2021/07/08 06:54:35;;;;;;;7.05;2.08;;;;;;;19.68;73.73;100156.47;2213939;40;20033;-85
2021/07/08 06:56:07;;;;;;;10.55;3.65;;;;;;;19.70;73.42;100161.66;2212810;40;20041;-82
2021/07/08 06:57:50;;;;;;;11.35;3.10;;;;;;;19.69;73.63;100163.56;2222982;40;20272;-82
2021/07/08 06:59:22;;;;;;;8.85;4.78;;;;;;;19.55;73.81;100151.81;2213115;40;20298;-82
2021/07/08 07:00:53;;;;;;;8.93;5.45;;;;;;;19.51;73.75;100152.44;2218215;40;20052;-82
2021/07/08 07:02:24;;;;;;;12.40;7.15;;;;;;;19.47;74.01;100147.41;2221506;40;20037;-87
2021/07/08 07:03:56;;;;;;;17.83;13.15;;;;;;;19.41;73.93;100147.38;2219459;40;20030;-81
2021/07/08 07:05:29;;;;;;;6.28;3.80;;;;;;;19.33;74.19;100145.66;2219313;40;20037;-82
2021/07/08 07:07:03;;;;;;;8.63;3.08;;;;;;;19.30;74.46;100129.78;2219337;40;20025;-82
2021/07/08 07:08:36;;;;;;;6.57;3.05;;;;;;;19.30;74.18;100125.22;2221867;40;20044;-88
2021/07/08 07:10:09;;;;;;;7.65;2.75;;;;;;;19.29;74.37;100122.69;2222438;40;20029;-87
2021/07/08 07:11:40;;;;;;;8.40;3.40;;;;;;;19.26;74.42;100117.69;2222371;40;20033;-87
2021/07/08 07:13:12;;;;;;;6.78;2.80;;;;;;;19.27;74.58;100122.91;2222281;40;20029;-86
2021/07/08 07:14:44;;;;;;;7.18;2.40;;;;;;;19.32;74.27;100127.72;2222214;40;20029;-86
2021/07/08 07:16:14;;;;;;;6.30;3.42;;;;;;;19.39;74.17;100139.44;2216194;40;20166;-86
2021/07/08 07:17:47;;;;;;;9.75;3.13;;;;;;;19.39;74.26;100136.72;2215736;40;20625;-88
2021/07/08 07:19:19;;;;;;;8.27;2.80;;;;;;;19.43;74.30;100150.72;2216043;40;20034;-87
2021/07/08 07:20:50;;;;;;;8.73;3.53;;;;;;;19.47;74.42;100163.66;2215822;40;20025;-88
2021/07/08 07:22:22;;;;;;;9.38;3.80;;;;;;;19.46;74.70;100167.41;2215971;40;20591;-87
2021/07/08 07:23:54;;;;;;;6.97;3.20;;;;;;;19.43;74.77;100161.56;2216049;40;20041;-86
2021/07/08 07:25:28;;;;;;;10.10;3.50;;;;;;;19.46;75.08;100158.44;2216091;40;20044;-87
2021/07/08 07:27:00;;;;;;;9.05;4.20;;;;;;;19.49;75.23;100156.16;2218024;40;20029;-82
2021/07/08 07:28:31;;;;;;;14.88;4.50;;;;;;;19.49;75.72;100148.03;2216066;40;20026;-81
2021/07/08 07:30:05;;;;;;;7.25;4.07;;;;;;;19.48;75.88;100140.94;2215758;40;20045;-87
2021/07/08 07:31:37;;;;;;;7.43;3.85;;;;;;;19.48;76.16;100143.66;2216081;40;20057;-86
2021/07/08 07:33:08;;;;;;;6.38;3.65;;;;;;;19.52;76.34;100149.50;2216186;40;20038;-89
2021/07/08 07:34:39;;;;;;;6.40;3.17;;;;;;;19.59;76.52;100150.41;2215952;40;20538;-86
2021/07/08 07:36:11;;;;;;;10.35;4.50;;;;;;;19.65;76.47;100151.44;2215878;40;20031;-87
2021/07/08 07:37:44;;;;;;;7.45;4.60;;;;;;;19.52;76.04;100143.25;2216217;40;20030;-85
2021/07/08 07:39:16;;;;;;;10.77;4.97;;;;;;;19.40;76.80;100134.88;2215817;40;20022;-87
2021/07/08 07:40:48;;;;;;;9.52;4.60;;;;;;;19.36;76.87;100129.00;2215961;40;20045;-88
2021/07/08 07:42:19;;;;;;;8.95;4.10;;;;;;;19.39;76.98;100131.31;2215545;40;20026;-86
2021/07/08 07:43:51;;;;;;;7.03;3.80;;;;;;;19.49;77.01;100129.06;2215984;40;20026;-88
2021/07/08 07:45:23;;;;;;;8.20;3.63;;;;;;;19.64;76.76;100138.94;2216166;40;20380;-87
2021/07/08 07:46:55;;;;;;;8.77;4.15;;;;;;;19.76;76.34;100137.31;2215931;40;20025;-88
2021/07/08 07:48:28;;;;;;;6.45;4.43;;;;;;;19.79;75.47;100134.19;2216054;40;20041;-88
2021/07/08 07:49:59;;;;;;;8.05;4.28;;;;;;;19.79;75.23;100149.59;2215979;40;20046;-87
2021/07/08 07:51:31;;;;;;;7.93;4.18;;;;;;;19.81;74.85;100147.53;2215864;40;20036;-84
2021/07/08 07:53:04;;;;;;;7.53;4.03;;;;;;;19.82;74.30;100148.41;2206104;40;20034;-86
2021/07/08 07:54:36;;;;;;;7.40;3.70;;;;;;;19.76;74.25;100147.31;2215888;40;20069;-87
2021/07/08 07:56:08;;;;;;;8.52;3.20;;;;;;;19.78;74.68;100143.38;2222107;40;20033;-87
2021/07/08 07:57:41;;;;;;;10.05;4.57;;;;;;;19.82;73.93;100132.13;2215220;40;20146;-88
2021/07/08 07:59:12;;;;;;;9.02;4.32;;;;;;;19.83;74.13;100123.78;2221939;40;20021;-88
2021/07/08 08:00:44;;;;;;;8.43;3.95;;;;;;;19.86;74.26;100125.25;2221114;40;20016;-86
2021/07/08 08:02:16;;;;;;;8.30;4.13;;;;;;;19.86;74.28;100122.53;2220914;40;20017;-87
2021/07/08 08:03:49;;;;;;;12.55;4.00;;;;;;;19.91;74.45;100126.31;2222619;40;20033;-86
2021/07/08 08:05:34;;;;;;;11.93;4.53;;;;;;;19.91;74.23;100120.91;2222467;40;20041;-86
2021/07/08 08:08:56;;;;;;;7.90;3.20;;;;;;;19.86;73.98;100127.97;2221754;40;20026;-87
2021/07/08 08:10:27;;;;;;;6.43;3.60;;;;;;;19.86;73.84;100133.41;2222033;40;20025;-86
2021/07/08 08:11:58;;;;;;;10.30;3.15;;;;;;;19.84;73.81;100124.63;2221961;40;20046;-85
2021/07/08 08:13:32;;;;;;;6.30;3.45;;;;;;;19.90;74.13;100130.06;2221684;40;20037;-84
2021/07/08 08:15:06;;;;;;;8.45;3.03;;;;;;;20.00;74.07;100124.28;2221725;40;20029;-84
2021/07/08 08:16:37;;;;;;;4.47;2.75;;;;;;;20.09;73.82;100111.34;2214673;40;20049;-83
2021/07/08 08:18:08;;;;;;;5.13;2.47;;;;;;;20.23;73.43;100118.47;2214757;40;20301;-82
2021/07/08 08:19:40;;;;;;;7.10;2.67;;;;;;;20.36;72.82;100114.06;2220773;40;20033;-82
2021/07/08 08:21:12;;;;;;;4.90;2.00;;;;;;;20.49;72.16;100118.69;2221085;40;20038;-83
2021/07/08 08:22:43;;;;;;;7.57;2.88;;;;;;;20.64;71.67;100118.50;2221079;40;20041;-82
2021/07/08 08:24:16;;;;;;;10.13;3.03;;;;;;;20.75;71.45;100119.75;2221615;40;20057;-86
2021/07/08 08:25:48;;;;;;;4.70;2.30;;;;;;;20.75;71.35;100123.31;2215408;40;20327;-87
2021/07/08 08:27:19;;;;;;;7.63;2.72;;;;;;;20.80;70.88;100128.97;2215903;40;20030;-86
2021/07/08 08:28:51;;;;;;;7.15;3.25;;;;;;;20.79;70.67;100124.56;2216825;40;20081;-87
2021/07/08 08:30:22;;;;;;;8.10;2.95;;;;;;;20.82;70.72;100131.44;2208648;40;20039;-84
2021/07/08 08:31:54;;;;;;;7.13;2.80;;;;;;;20.82;70.71;100131.44;2214363;40;20092;-82
2021/07/08 08:33:26;;;;;;;7.05;2.47;;;;;;;20.90;70.75;100133.13;2214318;40;20038;-85
2021/07/08 08:34:56;;;;;;;8.60;2.75;;;;;;;20.99;70.63;100127.25;2215509;40;20355;-83
2021/07/08 08:36:28;;;;;;;7.75;3.42;;;;;;;21.07;70.44;100117.19;2215464;40;20037;-84
2021/07/08 08:38:00;;;;;;;6.20;3.08;;;;;;;21.00;70.47;100117.22;2218607;40;20373;-87
2021/07/08 08:39:32;;;;;;;5.38;2.63;;;;;;;20.93;70.67;100128.09;2222691;40;20352;-88
2021/07/08 08:41:04;;;;;;;5.18;3.53;;;;;;;20.96;70.76;100126.84;2216253;40;20084;-87
2021/07/08 08:42:35;;;;;;;7.90;3.75;;;;;;;20.90;70.55;100133.13;2216132;40;20029;-87
2021/07/08 08:44:08;;;;;;;5.80;2.88;;;;;;;20.92;70.61;100117.47;2218272;40;20018;-85
2021/07/08 08:45:40;;;;;;;4.75;2.10;;;;;;;20.99;70.20;100124.53;2221867;40;20042;-84
2021/07/08 08:47:11;;;;;;;7.03;2.47;;;;;;;21.08;69.91;100121.59;2222369;40;20037;-85
2021/07/08 08:48:43;;;;;;;5.60;3.05;;;;;;;21.16;69.90;100118.66;2222320;40;20041;-84
2021/07/08 08:50:14;;;;;;;5.93;2.40;;;;;;;21.23;69.60;100116.75;2222755;40;20038;-85
2021/07/08 08:51:47;;;;;;;4.47;2.35;;;;;;;21.27;69.62;100117.97;2221712;40;20026;-84
2021/07/08 08:53:20;;;;;;;5.05;2.40;;;;;;;21.33;69.34;100117.16;2222361;40;20508;-87
2021/07/08 08:54:52;;;;;;;5.65;2.28;;;;;;;21.40;68.88;100127.97;2222516;40;20032;-87
2021/07/08 08:56:24;;;;;;;6.72;2.10;;;;;;;21.48;68.66;100125.03;2222361;40;20369;-87
2021/07/08 08:57:56;;;;;;;4.68;1.88;;;;;;;21.56;68.21;100123.94;2222708;40;20022;-87
2021/07/08 08:59:27;;;;;;;7.55;2.35;;;;;;;21.64;67.83;100133.78;2222054;40;20030;-83
2021/07/08 09:01:02;;;;;;;5.03;1.90;;;;;;;21.74;67.56;100136.03;2220585;40;20029;-82
2021/07/08 09:02:33;;;;;;;6.00;2.38;;;;;;;21.76;67.50;100140.22;2219895;40;20048;-83
2021/07/08 09:04:05;;;;;;;4.75;2.28;;;;;;;21.79;67.64;100136.25;2218963;40;20033;-83
2021/07/08 09:05:37;;;;;;;5.20;2.50;;;;;;;21.77;67.39;100139.16;2214528;40;20030;-83
2021/07/08 09:07:26;;;;;;;4.43;2.35;;;;;;;21.73;67.45;100134.38;2217852;40;20082;-81
2021/07/08 09:09:08;;;;;;;4.88;2.45;;;;;;;21.68;67.19;100140.44;2220041;40;20042;-84
2021/07/08 09:10:41;;;;;;;4.70;2.40;;;;;;;21.57;67.33;100128.34;2217122;40;20068;-81
2021/07/08 09:12:17;;;;;;;4.55;2.13;;;;;;;21.46;67.58;100134.44;2220028;40;20068;-82
2021/07/08 09:14:01;;;;;;;4.60;2.50;;;;;;;21.42;68.03;100138.66;2217465;40;20091;-88
2021/07/08 09:15:32;;;;;;;4.55;2.05;;;;;;;21.40;68.24;100143.47;2214682;40;20026;-84
2021/07/08 09:17:16;;;;;;;6.45;2.00;;;;;;;21.44;67.94;100134.66;2225021;40;20021;-82
2021/07/08 09:18:57;;;;;;;6.63;2.00;;;;;;;21.57;67.78;100131.06;2221845;40;20033;-83
2021/07/08 09:20:29;;;;;;;8.07;2.53;;;;;;;21.68;67.43;100136.91;2216011;40;20049;-86
2021/07/08 09:22:03;;;;;;;4.75;1.95;;;;;;;21.68;67.12;100136.91;2216771;40;20026;-87
2021/07/08 09:23:36;;;;;;;3.92;1.70;;;;;;;21.78;66.88;100140.00;2216673;40;20094;-87
2021/07/08 09:25:25;;;;;;;4.13;1.88;;;;;;;21.83;66.73;100139.34;2206472;40;20049;-82
2021/07/08 09:27:02;;;;;;;4.35;1.85;;;;;;;21.85;66.60;100140.81;2213676;40;20042;-83
2021/07/08 09:28:37;;;;;;;5.82;2.00;;;;;;;21.89;66.58;100142.06;2213214;40;20087;-82
2021/07/08 09:30:09;;;;;;;4.35;1.83;;;;;;;21.88;66.48;100139.53;2216168;40;20030;-87
2021/07/08 09:31:41;;;;;;;4.00;1.60;;;;;;;21.86;66.62;100136.22;2216631;40;20094;-87
2021/07/08 09:33:46;;;;;;;4.00;2.03;;;;;;;21.84;66.35;100139.13;2216559;40;20070;-88
2021/07/08 09:35:31;;;;;;;5.45;2.45;;;;;;;21.88;66.27;100140.38;2197488;40;20572;-89
2021/07/08 09:37:11;;;;;;;6.43;3.60;;;;;;;21.87;66.52;100143.31;2197454;40;20502;-88
2021/07/08 09:38:45;;;;;;;5.80;2.70;;;;;;;21.85;66.45;100138.09;2195259;40;20037;-83
2021/07/08 09:40:21;;;;;;;4.13;2.20;;;;;;;21.85;66.35;100150.88;2197324;40;20579;-86
2021/07/08 09:41:54;;;;;;;4.45;2.47;;;;;;;21.85;66.56;100153.59;2198494;40;20031;-84
2021/07/08 09:43:31;;;;;;;5.70;2.20;;;;;;;21.84;66.55;100151.91;2201743;40;20039;-84
2021/07/08 09:45:05;;;;;;;5.22;2.10;;;;;;;21.82;66.62;100154.84;2202168;40;20059;-87
2021/07/08 09:46:36;;;;;;;6.90;2.80;;;;;;;21.80;67.04;100162.41;2203600;40;20035;-88
2021/07/08 09:48:18;;;;;;;5.43;2.30;;;;;;;21.81;66.87;100150.47;2191593;40;20028;-89
2021/07/08 09:49:50;;;;;;;3.67;1.92;;;;;;;21.83;67.11;100147.53;2185813;40;20039;-89
2021/07/08 09:51:28;;;;;;;5.75;1.50;;;;;;;21.88;66.56;100139.53;2184744;40;20040;-86